sensor_id;sensor_type;location;lat;lon;timestamp;P1;durP1;ratioP1;P2;durP2;ratioP2
15944;SDS011;30172;48.832;8.732;2023-01-23T00:00:24;16.90;;;10.70;;
15944;SDS011;30172;48.832;8.732;2023-01-23T00:02:49;14.47;;;9.40;;
15944;SDS011;30172;48.832;8.732;2023-01-23T00:05:14;15.27;;;9.77;;
15944;SDS011;30172;48.832;8.732;2023-01-23T00:07:40;13.50;;;9.17;;
15944;SDS011;30172;48.832;8.732;2023-01-23T00:10:05;14.60;;;10.30;;
15944;SDS011;30172;48.832;8.732;2023-01-23T00:12:31;15.87;;;9.97;;
15944;SDS011;30172;48.832;8.732;2023-01-23T00:14:56;13.73;;;10.00;;
15944;SDS011;30172;48.832;8.732;2023-01-23T00:17:23;15.43;;;9.80;;
15944;SDS011;30172;48.832;8.732;2023-01-23T00:19:51;14.63;;;9.70;;
15944;SDS011;30172;48.832;8.732;2023-01-23T00:22:17;18.97;;;10.77;;
15944;SDS011;30172;48.832;8.732;2023-01-23T00:24:43;17.40;;;9.97;;
15944;SDS011;30172;48.832;8.732;2023-01-23T00:27:08;16.40;;;10.67;;
15944;SDS011;30172;48.832;8.732;2023-01-23T00:29:33;18.13;;;11.80;;
15944;SDS011;30172;48.832;8.732;2023-01-23T00:31:59;19.20;;;11.23;;
15944;SDS011;30172;48.832;8.732;2023-01-23T00:34:24;16.87;;;10.37;;
15944;SDS011;30172;48.832;8.732;2023-01-23T00:36:49;15.13;;;10.30;;
15944;SDS011;30172;48.832;8.732;2023-01-23T00:39:16;15.63;;;10.90;;
15944;SDS011;30172;48.832;8.732;2023-01-23T00:41:43;22.37;;;12.30;;
15944;SDS011;30172;48.832;8.732;2023-01-23T00:44:09;16.97;;;10.87;;
15944;SDS011;30172;48.832;8.732;2023-01-23T00:46:34;15.73;;;10.10;;
15944;SDS011;30172;48.832;8.732;2023-01-23T00:48:59;15.80;;;10.17;;
15944;SDS011;30172;48.832;8.732;2023-01-23T00:51:25;19.50;;;11.97;;
15944;SDS011;30172;48.832;8.732;2023-01-23T00:53:50;18.93;;;10.73;;
15944;SDS011;30172;48.832;8.732;2023-01-23T00:56:16;13.63;;;9.23;;
15944;SDS011;30172;48.832;8.732;2023-01-23T00:58:41;13.70;;;9.33;;
15944;SDS011;30172;48.832;8.732;2023-01-23T01:01:07;12.43;;;9.33;;
15944;SDS011;30172;48.832;8.732;2023-01-23T01:03:32;12.70;;;10.20;;
15944;SDS011;30172;48.832;8.732;2023-01-23T01:05:59;13.67;;;8.67;;
15944;SDS011;30172;48.832;8.732;2023-01-23T01:08:24;13.73;;;8.70;;
15944;SDS011;30172;48.832;8.732;2023-01-23T01:10:50;13.37;;;9.63;;
15944;SDS011;30172;48.832;8.732;2023-01-23T01:13:15;14.63;;;10.33;;
15944;SDS011;30172;48.832;8.732;2023-01-23T01:15:45;14.73;;;10.13;;
15944;SDS011;30172;48.832;8.732;2023-01-23T01:18:10;15.40;;;10.70;;
15944;SDS011;30172;48.832;8.732;2023-01-23T01:20:35;15.60;;;11.40;;
15944;SDS011;30172;48.832;8.732;2023-01-23T01:23:04;17.77;;;11.50;;
15944;SDS011;30172;48.832;8.732;2023-01-23T01:25:30;14.70;;;10.47;;
15944;SDS011;30172;48.832;8.732;2023-01-23T01:27:55;15.63;;;10.40;;
15944;SDS011;30172;48.832;8.732;2023-01-23T01:30:20;16.13;;;11.20;;
15944;SDS011;30172;48.832;8.732;2023-01-23T01:32:46;15.30;;;10.00;;
15944;SDS011;30172;48.832;8.732;2023-01-23T01:35:12;15.87;;;10.40;;
15944;SDS011;30172;48.832;8.732;2023-01-23T01:37:38;15.50;;;10.90;;
15944;SDS011;30172;48.832;8.732;2023-01-23T01:40:05;16.97;;;11.03;;
15944;SDS011;30172;48.832;8.732;2023-01-23T01:42:37;14.13;;;9.93;;
15944;SDS011;30172;48.832;8.732;2023-01-23T01:45:03;15.77;;;10.83;;
15944;SDS011;30172;48.832;8.732;2023-01-23T01:47:28;17.37;;;10.73;;
15944;SDS011;30172;48.832;8.732;2023-01-23T01:49:58;16.83;;;10.53;;
15944;SDS011;30172;48.832;8.732;2023-01-23T01:52:27;16.77;;;10.47;;
15944;SDS011;30172;48.832;8.732;2023-01-23T01:54:54;16.60;;;11.30;;
15944;SDS011;30172;48.832;8.732;2023-01-23T01:57:34;14.70;;;10.07;;
15944;SDS011;30172;48.832;8.732;2023-01-23T02:00:05;15.03;;;10.23;;
15944;SDS011;30172;48.832;8.732;2023-01-23T02:02:36;15.23;;;10.93;;
15944;SDS011;30172;48.832;8.732;2023-01-23T02:05:11;16.10;;;10.50;;
15944;SDS011;30172;48.832;8.732;2023-01-23T02:07:40;19.33;;;11.67;;
15944;SDS011;30172;48.832;8.732;2023-01-23T02:10:29;42.57;;;27.27;;
15944;SDS011;30172;48.832;8.732;2023-01-23T02:13:16;47.13;;;29.50;;
15944;SDS011;30172;48.832;8.732;2023-01-23T02:15:47;22.90;;;15.90;;
15944;SDS011;30172;48.832;8.732;2023-01-23T02:18:12;19.93;;;13.67;;
15944;SDS011;30172;48.832;8.732;2023-01-23T02:20:38;25.73;;;16.97;;
15944;SDS011;30172;48.832;8.732;2023-01-23T02:23:14;19.00;;;12.60;;
15944;SDS011;30172;48.832;8.732;2023-01-23T02:26:06;17.67;;;11.60;;
15944;SDS011;30172;48.832;8.732;2023-01-23T02:28:39;17.93;;;12.40;;
15944;SDS011;30172;48.832;8.732;2023-01-23T02:31:12;20.77;;;13.13;;
15944;SDS011;30172;48.832;8.732;2023-01-23T02:36:04;19.03;;;12.23;;
15944;SDS011;30172;48.832;8.732;2023-01-23T02:38:31;19.10;;;13.07;;
15944;SDS011;30172;48.832;8.732;2023-01-23T02:41:01;18.20;;;13.30;;
15944;SDS011;30172;48.832;8.732;2023-01-23T02:43:29;19.97;;;12.93;;
15944;SDS011;30172;48.832;8.732;2023-01-23T02:46:03;21.53;;;13.20;;
15944;SDS011;30172;48.832;8.732;2023-01-23T02:48:29;20.10;;;13.53;;
15944;SDS011;30172;48.832;8.732;2023-01-23T02:50:54;20.80;;;13.40;;
15944;SDS011;30172;48.832;8.732;2023-01-23T02:53:20;24.50;;;14.03;;
15944;SDS011;30172;48.832;8.732;2023-01-23T02:55:45;25.63;;;13.80;;
15944;SDS011;30172;48.832;8.732;2023-01-23T02:58:10;30.30;;;14.77;;
15944;SDS011;30172;48.832;8.732;2023-01-23T03:00:54;21.27;;;14.07;;
15944;SDS011;30172;48.832;8.732;2023-01-23T03:03:20;24.03;;;14.20;;
15944;SDS011;30172;48.832;8.732;2023-01-23T03:05:45;50.53;;;15.30;;
15944;SDS011;30172;48.832;8.732;2023-01-23T03:08:11;30.33;;;15.13;;
15944;SDS011;30172;48.832;8.732;2023-01-23T03:10:36;75.10;;;16.53;;
15944;SDS011;30172;48.832;8.732;2023-01-23T03:13:02;110.90;;;18.07;;
15944;SDS011;30172;48.832;8.732;2023-01-23T03:15:31;44.57;;;15.20;;
15944;SDS011;30172;48.832;8.732;2023-01-23T03:17:56;25.90;;;14.83;;
15944;SDS011;30172;48.832;8.732;2023-01-23T03:20:21;29.60;;;14.73;;
15944;SDS011;30172;48.832;8.732;2023-01-23T03:22:47;26.93;;;15.57;;
15944;SDS011;30172;48.832;8.732;2023-01-23T03:25:13;36.43;;;14.37;;
15944;SDS011;30172;48.832;8.732;2023-01-23T03:27:38;107.20;;;17.80;;
15944;SDS011;30172;48.832;8.732;2023-01-23T03:30:04;47.37;;;18.23;;
15944;SDS011;30172;48.832;8.732;2023-01-23T03:32:40;28.27;;;15.53;;
15944;SDS011;30172;48.832;8.732;2023-01-23T03:35:06;23.60;;;14.70;;
15944;SDS011;30172;48.832;8.732;2023-01-23T03:37:34;101.43;;;22.10;;
15944;SDS011;30172;48.832;8.732;2023-01-23T03:39:59;27.77;;;15.47;;
15944;SDS011;30172;48.832;8.732;2023-01-23T03:42:43;29.60;;;16.73;;
15944;SDS011;30172;48.832;8.732;2023-01-23T03:45:08;31.33;;;15.10;;
15944;SDS011;30172;48.832;8.732;2023-01-23T03:47:34;95.00;;;20.57;;
15944;SDS011;30172;48.832;8.732;2023-01-23T03:49:59;28.97;;;16.77;;
15944;SDS011;30172;48.832;8.732;2023-01-23T03:52:24;29.87;;;16.77;;
15944;SDS011;30172;48.832;8.732;2023-01-23T03:54:50;27.10;;;16.30;;
15944;SDS011;30172;48.832;8.732;2023-01-23T03:57:15;30.63;;;15.37;;
15944;SDS011;30172;48.832;8.732;2023-01-23T03:59:41;27.03;;;14.70;;
15944;SDS011;30172;48.832;8.732;2023-01-23T04:02:06;31.60;;;16.60;;
15944;SDS011;30172;48.832;8.732;2023-01-23T04:04:31;28.63;;;16.97;;
15944;SDS011;30172;48.832;8.732;2023-01-23T04:06:57;31.13;;;16.40;;
15944;SDS011;30172;48.832;8.732;2023-01-23T04:09:22;37.10;;;16.80;;
15944;SDS011;30172;48.832;8.732;2023-01-23T04:11:51;35.03;;;18.63;;
15944;SDS011;30172;48.832;8.732;2023-01-23T04:14:20;29.93;;;17.83;;
15944;SDS011;30172;48.832;8.732;2023-01-23T04:16:46;27.67;;;16.13;;
15944;SDS011;30172;48.832;8.732;2023-01-23T04:19:12;33.07;;;16.70;;
15944;SDS011;30172;48.832;8.732;2023-01-23T04:21:37;29.67;;;17.87;;
15944;SDS011;30172;48.832;8.732;2023-01-23T04:24:02;29.60;;;15.67;;
15944;SDS011;30172;48.832;8.732;2023-01-23T04:26:28;27.00;;;15.27;;
15944;SDS011;30172;48.832;8.732;2023-01-23T04:28:53;28.87;;;16.17;;
15944;SDS011;30172;48.832;8.732;2023-01-23T04:31:18;29.27;;;16.60;;
15944;SDS011;30172;48.832;8.732;2023-01-23T04:33:44;30.37;;;16.07;;
15944;SDS011;30172;48.832;8.732;2023-01-23T04:36:09;31.87;;;17.50;;
15944;SDS011;30172;48.832;8.732;2023-01-23T04:38:35;27.67;;;16.37;;
15944;SDS011;30172;48.832;8.732;2023-01-23T04:41:00;29.50;;;16.93;;
15944;SDS011;30172;48.832;8.732;2023-01-23T04:43:27;29.40;;;17.30;;
15944;SDS011;30172;48.832;8.732;2023-01-23T04:45:52;27.97;;;16.47;;
15944;SDS011;30172;48.832;8.732;2023-01-23T04:48:19;29.43;;;17.03;;
15944;SDS011;30172;48.832;8.732;2023-01-23T04:50:44;29.87;;;17.03;;
15944;SDS011;30172;48.832;8.732;2023-01-23T04:53:09;29.37;;;16.63;;
15944;SDS011;30172;48.832;8.732;2023-01-23T04:55:35;28.87;;;16.73;;
15944;SDS011;30172;48.832;8.732;2023-01-23T04:58:00;34.03;;;18.37;;
15944;SDS011;30172;48.832;8.732;2023-01-23T05:00:26;27.00;;;16.77;;
15944;SDS011;30172;48.832;8.732;2023-01-23T05:02:53;31.93;;;17.67;;
15944;SDS011;30172;48.832;8.732;2023-01-23T05:05:18;32.80;;;17.70;;
15944;SDS011;30172;48.832;8.732;2023-01-23T05:07:46;32.17;;;17.90;;
15944;SDS011;30172;48.832;8.732;2023-01-23T05:10:12;29.80;;;16.80;;
15944;SDS011;30172;48.832;8.732;2023-01-23T05:12:38;47.93;;;19.07;;
15944;SDS011;30172;48.832;8.732;2023-01-23T05:15:04;31.73;;;17.47;;
15944;SDS011;30172;48.832;8.732;2023-01-23T05:17:29;34.03;;;18.63;;
15944;SDS011;30172;48.832;8.732;2023-01-23T05:19:55;33.73;;;18.67;;
15944;SDS011;30172;48.832;8.732;2023-01-23T05:22:20;36.20;;;18.53;;
15944;SDS011;30172;48.832;8.732;2023-01-23T05:24:46;34.47;;;18.90;;
15944;SDS011;30172;48.832;8.732;2023-01-23T05:27:12;32.07;;;18.40;;
15944;SDS011;30172;48.832;8.732;2023-01-23T05:29:37;33.53;;;18.23;;
15944;SDS011;30172;48.832;8.732;2023-01-23T05:32:02;32.17;;;18.43;;
15944;SDS011;30172;48.832;8.732;2023-01-23T05:34:28;33.33;;;18.50;;
15944;SDS011;30172;48.832;8.732;2023-01-23T05:36:53;33.53;;;17.60;;
15944;SDS011;30172;48.832;8.732;2023-01-23T05:39:18;28.03;;;17.53;;
15944;SDS011;30172;48.832;8.732;2023-01-23T05:41:44;35.07;;;18.80;;
15944;SDS011;30172;48.832;8.732;2023-01-23T05:44:09;33.63;;;19.27;;
15944;SDS011;30172;48.832;8.732;2023-01-23T05:46:34;32.00;;;18.10;;
15944;SDS011;30172;48.832;8.732;2023-01-23T05:49:00;31.67;;;17.37;;
15944;SDS011;30172;48.832;8.732;2023-01-23T05:51:25;36.87;;;21.33;;
15944;SDS011;30172;48.832;8.732;2023-01-23T05:53:56;34.50;;;19.43;;
15944;SDS011;30172;48.832;8.732;2023-01-23T05:56:22;34.53;;;20.17;;
15944;SDS011;30172;48.832;8.732;2023-01-23T05:58:47;35.50;;;19.90;;
15944;SDS011;30172;48.832;8.732;2023-01-23T06:01:13;32.97;;;18.70;;
15944;SDS011;30172;48.832;8.732;2023-01-23T06:03:38;31.97;;;17.97;;
15944;SDS011;30172;48.832;8.732;2023-01-23T06:06:03;32.17;;;18.53;;
15944;SDS011;30172;48.832;8.732;2023-01-23T06:08:29;38.27;;;23.13;;
15944;SDS011;30172;48.832;8.732;2023-01-23T06:10:56;31.43;;;18.00;;
15944;SDS011;30172;48.832;8.732;2023-01-23T06:13:22;32.97;;;18.20;;
15944;SDS011;30172;48.832;8.732;2023-01-23T06:15:48;32.13;;;18.50;;
15944;SDS011;30172;48.832;8.732;2023-01-23T06:18:13;31.13;;;18.07;;
15944;SDS011;30172;48.832;8.732;2023-01-23T06:20:38;31.63;;;18.17;;
15944;SDS011;30172;48.832;8.732;2023-01-23T06:23:04;31.50;;;17.80;;
15944;SDS011;30172;48.832;8.732;2023-01-23T06:25:29;32.80;;;19.70;;
15944;SDS011;30172;48.832;8.732;2023-01-23T06:27:54;29.23;;;17.47;;
15944;SDS011;30172;48.832;8.732;2023-01-23T06:30:20;36.33;;;19.00;;
15944;SDS011;30172;48.832;8.732;2023-01-23T06:32:45;32.80;;;19.17;;
15944;SDS011;30172;48.832;8.732;2023-01-23T06:35:10;31.43;;;17.70;;
15944;SDS011;30172;48.832;8.732;2023-01-23T06:37:36;30.47;;;18.20;;
15944;SDS011;30172;48.832;8.732;2023-01-23T06:40:01;32.73;;;17.93;;
15944;SDS011;30172;48.832;8.732;2023-01-23T06:42:26;35.20;;;19.30;;
15944;SDS011;30172;48.832;8.732;2023-01-23T06:44:51;31.00;;;18.37;;
15944;SDS011;30172;48.832;8.732;2023-01-23T06:47:17;28.70;;;17.03;;
15944;SDS011;30172;48.832;8.732;2023-01-23T06:49:43;33.30;;;17.37;;
15944;SDS011;30172;48.832;8.732;2023-01-23T06:52:09;31.50;;;17.23;;
15944;SDS011;30172;48.832;8.732;2023-01-23T06:54:34;34.20;;;18.43;;
15944;SDS011;30172;48.832;8.732;2023-01-23T06:57:01;31.57;;;17.77;;
15944;SDS011;30172;48.832;8.732;2023-01-23T06:59:27;30.13;;;17.20;;
15944;SDS011;30172;48.832;8.732;2023-01-23T07:01:52;30.67;;;16.90;;
15944;SDS011;30172;48.832;8.732;2023-01-23T07:04:17;30.17;;;16.70;;
15944;SDS011;30172;48.832;8.732;2023-01-23T07:06:42;29.73;;;16.87;;
15944;SDS011;30172;48.832;8.732;2023-01-23T07:09:08;31.03;;;17.60;;
15944;SDS011;30172;48.832;8.732;2023-01-23T07:11:33;34.50;;;18.77;;
15944;SDS011;30172;48.832;8.732;2023-01-23T07:14:00;33.43;;;17.87;;
15944;SDS011;30172;48.832;8.732;2023-01-23T07:16:26;33.60;;;18.57;;
15944;SDS011;30172;48.832;8.732;2023-01-23T07:18:51;33.50;;;19.40;;
15944;SDS011;30172;48.832;8.732;2023-01-23T07:21:18;34.77;;;18.53;;
15944;SDS011;30172;48.832;8.732;2023-01-23T07:23:43;31.43;;;16.80;;
15944;SDS011;30172;48.832;8.732;2023-01-23T07:26:08;30.97;;;16.77;;
15944;SDS011;30172;48.832;8.732;2023-01-23T07:28:35;35.30;;;17.87;;
15944;SDS011;30172;48.832;8.732;2023-01-23T07:31:02;30.53;;;17.37;;
15944;SDS011;30172;48.832;8.732;2023-01-23T07:33:27;38.87;;;19.10;;
15944;SDS011;30172;48.832;8.732;2023-01-23T07:35:53;35.47;;;18.17;;
15944;SDS011;30172;48.832;8.732;2023-01-23T07:38:18;39.17;;;21.17;;
15944;SDS011;30172;48.832;8.732;2023-01-23T07:40:44;36.03;;;18.57;;
15944;SDS011;30172;48.832;8.732;2023-01-23T07:43:09;38.37;;;20.63;;
15944;SDS011;30172;48.832;8.732;2023-01-23T07:45:35;40.77;;;21.17;;
15944;SDS011;30172;48.832;8.732;2023-01-23T07:48:01;48.30;;;27.83;;
15944;SDS011;30172;48.832;8.732;2023-01-23T07:50:27;37.87;;;20.43;;
15944;SDS011;30172;48.832;8.732;2023-01-23T07:52:52;37.70;;;19.33;;
15944;SDS011;30172;48.832;8.732;2023-01-23T07:55:18;34.97;;;18.13;;
15944;SDS011;30172;48.832;8.732;2023-01-23T07:57:43;38.47;;;20.53;;
15944;SDS011;30172;48.832;8.732;2023-01-23T08:00:09;49.87;;;29.90;;
15944;SDS011;30172;48.832;8.732;2023-01-23T08:02:35;38.23;;;23.17;;
15944;SDS011;30172;48.832;8.732;2023-01-23T08:05:01;40.30;;;23.00;;
15944;SDS011;30172;48.832;8.732;2023-01-23T08:07:27;41.03;;;22.30;;
15944;SDS011;30172;48.832;8.732;2023-01-23T08:09:52;48.07;;;23.60;;
15944;SDS011;30172;48.832;8.732;2023-01-23T08:12:17;37.30;;;20.30;;
15944;SDS011;30172;48.832;8.732;2023-01-23T08:14:43;45.67;;;24.27;;
15944;SDS011;30172;48.832;8.732;2023-01-23T08:17:08;47.07;;;24.33;;
15944;SDS011;30172;48.832;8.732;2023-01-23T08:19:33;35.17;;;18.33;;
15944;SDS011;30172;48.832;8.732;2023-01-23T08:21:58;38.60;;;18.83;;
15944;SDS011;30172;48.832;8.732;2023-01-23T08:24:24;40.57;;;21.23;;
15944;SDS011;30172;48.832;8.732;2023-01-23T08:26:49;38.33;;;20.30;;
15944;SDS011;30172;48.832;8.732;2023-01-23T08:29:14;43.67;;;22.13;;
15944;SDS011;30172;48.832;8.732;2023-01-23T08:31:40;37.10;;;21.33;;
15944;SDS011;30172;48.832;8.732;2023-01-23T08:34:05;35.70;;;18.87;;
15944;SDS011;30172;48.832;8.732;2023-01-23T08:36:30;44.03;;;20.93;;
15944;SDS011;30172;48.832;8.732;2023-01-23T08:38:56;34.90;;;18.03;;
15944;SDS011;30172;48.832;8.732;2023-01-23T08:41:21;38.50;;;20.07;;
15944;SDS011;30172;48.832;8.732;2023-01-23T08:43:47;38.53;;;20.83;;
15944;SDS011;30172;48.832;8.732;2023-01-23T08:46:13;34.97;;;19.13;;
15944;SDS011;30172;48.832;8.732;2023-01-23T08:48:38;35.63;;;18.90;;
15944;SDS011;30172;48.832;8.732;2023-01-23T08:51:05;37.03;;;18.40;;
15944;SDS011;30172;48.832;8.732;2023-01-23T08:53:32;35.00;;;18.57;;
15944;SDS011;30172;48.832;8.732;2023-01-23T08:56:09;35.67;;;18.43;;
15944;SDS011;30172;48.832;8.732;2023-01-23T08:58:38;32.37;;;18.40;;
15944;SDS011;30172;48.832;8.732;2023-01-23T09:01:04;32.60;;;17.80;;
15944;SDS011;30172;48.832;8.732;2023-01-23T09:03:29;31.80;;;18.53;;
15944;SDS011;30172;48.832;8.732;2023-01-23T09:05:54;32.67;;;18.40;;
15944;SDS011;30172;48.832;8.732;2023-01-23T09:08:24;30.87;;;17.20;;
15944;SDS011;30172;48.832;8.732;2023-01-23T09:10:50;30.87;;;17.40;;
15944;SDS011;30172;48.832;8.732;2023-01-23T09:13:15;29.50;;;17.60;;
15944;SDS011;30172;48.832;8.732;2023-01-23T09:15:41;32.03;;;16.33;;
15944;SDS011;30172;48.832;8.732;2023-01-23T09:18:06;29.30;;;17.37;;
15944;SDS011;30172;48.832;8.732;2023-01-23T09:20:31;30.07;;;17.20;;
15944;SDS011;30172;48.832;8.732;2023-01-23T09:22:56;27.90;;;15.77;;
15944;SDS011;30172;48.832;8.732;2023-01-23T09:25:22;29.00;;;16.13;;
15944;SDS011;30172;48.832;8.732;2023-01-23T09:27:47;27.90;;;16.80;;
15944;SDS011;30172;48.832;8.732;2023-01-23T09:30:13;31.47;;;17.13;;
15944;SDS011;30172;48.832;8.732;2023-01-23T09:32:38;28.47;;;16.20;;
15944;SDS011;30172;48.832;8.732;2023-01-23T09:35:03;29.30;;;16.67;;
15944;SDS011;30172;48.832;8.732;2023-01-23T09:37:30;25.90;;;15.23;;
15944;SDS011;30172;48.832;8.732;2023-01-23T09:40:18;23.67;;;13.90;;
15944;SDS011;30172;48.832;8.732;2023-01-23T09:42:46;24.93;;;15.63;;
15944;SDS011;30172;48.832;8.732;2023-01-23T09:45:14;24.60;;;15.23;;
15944;SDS011;30172;48.832;8.732;2023-01-23T09:47:43;25.53;;;15.43;;
15944;SDS011;30172;48.832;8.732;2023-01-23T09:50:15;24.07;;;14.67;;
15944;SDS011;30172;48.832;8.732;2023-01-23T09:52:49;25.77;;;14.77;;
15944;SDS011;30172;48.832;8.732;2023-01-23T09:55:30;23.77;;;14.33;;
15944;SDS011;30172;48.832;8.732;2023-01-23T09:58:02;21.67;;;13.43;;
15944;SDS011;30172;48.832;8.732;2023-01-23T10:00:28;23.87;;;13.17;;
15944;SDS011;30172;48.832;8.732;2023-01-23T10:02:56;21.63;;;13.60;;
15944;SDS011;30172;48.832;8.732;2023-01-23T10:08:15;20.30;;;12.70;;
15944;SDS011;30172;48.832;8.732;2023-01-23T10:10:58;23.07;;;12.77;;
15944;SDS011;30172;48.832;8.732;2023-01-23T10:13:34;21.47;;;12.50;;
15944;SDS011;30172;48.832;8.732;2023-01-23T10:21:41;21.23;;;12.57;;
15944;SDS011;30172;48.832;8.732;2023-01-23T10:24:43;20.30;;;12.43;;
15944;SDS011;30172;48.832;8.732;2023-01-23T10:27:17;20.23;;;12.57;;
15944;SDS011;30172;48.832;8.732;2023-01-23T10:29:51;22.97;;;13.80;;
15944;SDS011;30172;48.832;8.732;2023-01-23T10:32:28;21.93;;;13.10;;
15944;SDS011;30172;48.832;8.732;2023-01-23T10:34:56;21.73;;;14.03;;
15944;SDS011;30172;48.832;8.732;2023-01-23T10:40:12;22.20;;;14.07;;
15944;SDS011;30172;48.832;8.732;2023-01-23T10:43:01;24.07;;;14.00;;
15944;SDS011;30172;48.832;8.732;2023-01-23T10:45:27;23.37;;;13.40;;
15944;SDS011;30172;48.832;8.732;2023-01-23T10:47:52;23.83;;;14.10;;
15944;SDS011;30172;48.832;8.732;2023-01-23T10:50:19;25.73;;;15.07;;
15944;SDS011;30172;48.832;8.732;2023-01-23T10:53:04;25.90;;;13.97;;
15944;SDS011;30172;48.832;8.732;2023-01-23T10:55:31;23.87;;;14.97;;
15944;SDS011;30172;48.832;8.732;2023-01-23T10:57:57;25.43;;;14.83;;
15944;SDS011;30172;48.832;8.732;2023-01-23T11:00:29;22.83;;;14.90;;
15944;SDS011;30172;48.832;8.732;2023-01-23T11:05:47;22.23;;;12.43;;
15944;SDS011;30172;48.832;8.732;2023-01-23T11:08:38;22.43;;;14.63;;
15944;SDS011;30172;48.832;8.732;2023-01-23T11:13:41;24.07;;;13.90;;
15944;SDS011;30172;48.832;8.732;2023-01-23T11:16:18;26.17;;;15.37;;
15944;SDS011;30172;48.832;8.732;2023-01-23T11:18:51;25.00;;;15.67;;
15944;SDS011;30172;48.832;8.732;2023-01-23T11:21:27;32.33;;;18.73;;
15944;SDS011;30172;48.832;8.732;2023-01-23T11:24:07;27.17;;;15.87;;
15944;SDS011;30172;48.832;8.732;2023-01-23T11:26:58;27.03;;;16.40;;
15944;SDS011;30172;48.832;8.732;2023-01-23T11:29:26;26.93;;;16.53;;
15944;SDS011;30172;48.832;8.732;2023-01-23T11:32:02;26.63;;;15.00;;
15944;SDS011;30172;48.832;8.732;2023-01-23T11:34:33;26.27;;;15.23;;
15944;SDS011;30172;48.832;8.732;2023-01-23T11:37:13;26.47;;;15.90;;
15944;SDS011;30172;48.832;8.732;2023-01-23T11:42:26;30.93;;;17.63;;
15944;SDS011;30172;48.832;8.732;2023-01-23T11:44:51;24.13;;;15.10;;
15944;SDS011;30172;48.832;8.732;2023-01-23T11:47:29;25.77;;;16.60;;
15944;SDS011;30172;48.832;8.732;2023-01-23T12:01:12;26.10;;;15.57;;
15944;SDS011;30172;48.832;8.732;2023-01-23T12:09:20;25.07;;;14.17;;
15944;SDS011;30172;48.832;8.732;2023-01-23T12:14:20;23.70;;;13.87;;
15944;SDS011;30172;48.832;8.732;2023-01-23T12:17:03;25.17;;;15.43;;
15944;SDS011;30172;48.832;8.732;2023-01-23T12:27:47;26.70;;;16.23;;
15944;SDS011;30172;48.832;8.732;2023-01-23T12:30:26;27.87;;;16.53;;
15944;SDS011;30172;48.832;8.732;2023-01-23T12:35:48;32.13;;;17.13;;
15944;SDS011;30172;48.832;8.732;2023-01-23T12:38:36;34.23;;;17.57;;
15944;SDS011;30172;48.832;8.732;2023-01-23T12:43:49;32.97;;;18.10;;
15944;SDS011;30172;48.832;8.732;2023-01-23T12:46:22;34.80;;;18.57;;
15944;SDS011;30172;48.832;8.732;2023-01-23T12:48:57;26.70;;;16.07;;
15944;SDS011;30172;48.832;8.732;2023-01-23T12:51:32;40.63;;;21.57;;
15944;SDS011;30172;48.832;8.732;2023-01-23T12:54:00;27.60;;;15.87;;
15944;SDS011;30172;48.832;8.732;2023-01-23T12:56:29;35.60;;;19.10;;
15944;SDS011;30172;48.832;8.732;2023-01-23T13:07:00;33.27;;;18.37;;
15944;SDS011;30172;48.832;8.732;2023-01-23T13:10:03;23.60;;;14.43;;
15944;SDS011;30172;48.832;8.732;2023-01-23T13:12:48;32.13;;;17.93;;
15944;SDS011;30172;48.832;8.732;2023-01-23T13:18:20;24.93;;;15.07;;
15944;SDS011;30172;48.832;8.732;2023-01-23T13:20:58;37.13;;;19.17;;
15944;SDS011;30172;48.832;8.732;2023-01-23T13:23:45;25.30;;;15.10;;
15944;SDS011;30172;48.832;8.732;2023-01-23T13:28:44;31.10;;;17.57;;
15944;SDS011;30172;48.832;8.732;2023-01-23T13:36:39;23.77;;;13.83;;
15944;SDS011;30172;48.832;8.732;2023-01-23T13:41:46;24.87;;;15.00;;
15944;SDS011;30172;48.832;8.732;2023-01-23T13:49:27;25.77;;;14.73;;
15944;SDS011;30172;48.832;8.732;2023-01-23T13:52:26;23.27;;;13.70;;
15944;SDS011;30172;48.832;8.732;2023-01-23T13:55:31;28.43;;;16.90;;
15944;SDS011;30172;48.832;8.732;2023-01-23T13:58:17;23.27;;;14.90;;
15944;SDS011;30172;48.832;8.732;2023-01-23T14:00:47;27.40;;;15.43;;
15944;SDS011;30172;48.832;8.732;2023-01-23T14:03:35;30.70;;;17.43;;
15944;SDS011;30172;48.832;8.732;2023-01-23T14:06:21;22.43;;;13.90;;
15944;SDS011;30172;48.832;8.732;2023-01-23T14:08:58;24.07;;;15.17;;
15944;SDS011;30172;48.832;8.732;2023-01-23T14:11:30;21.87;;;13.97;;
15944;SDS011;30172;48.832;8.732;2023-01-23T14:14:01;24.63;;;14.57;;
15944;SDS011;30172;48.832;8.732;2023-01-23T14:16:46;25.53;;;14.27;;
15944;SDS011;30172;48.832;8.732;2023-01-23T14:19:24;25.07;;;15.37;;
15944;SDS011;30172;48.832;8.732;2023-01-23T14:21:52;29.70;;;19.80;;
15944;SDS011;30172;48.832;8.732;2023-01-23T14:24:54;25.17;;;15.30;;
15944;SDS011;30172;48.832;8.732;2023-01-23T14:27:32;24.17;;;13.70;;
15944;SDS011;30172;48.832;8.732;2023-01-23T14:30:03;23.30;;;14.37;;
15944;SDS011;30172;48.832;8.732;2023-01-23T14:32:38;25.03;;;14.83;;
15944;SDS011;30172;48.832;8.732;2023-01-23T14:35:14;24.33;;;14.57;;
15944;SDS011;30172;48.832;8.732;2023-01-23T14:38:10;23.23;;;13.53;;
15944;SDS011;30172;48.832;8.732;2023-01-23T14:40:42;24.03;;;14.30;;
15944;SDS011;30172;48.832;8.732;2023-01-23T14:43:07;25.23;;;15.40;;
15944;SDS011;30172;48.832;8.732;2023-01-23T14:45:33;25.17;;;14.40;;
15944;SDS011;30172;48.832;8.732;2023-01-23T14:47:59;23.87;;;13.50;;
15944;SDS011;30172;48.832;8.732;2023-01-23T14:50:26;25.23;;;14.67;;
15944;SDS011;30172;48.832;8.732;2023-01-23T14:53:00;24.47;;;14.40;;
15944;SDS011;30172;48.832;8.732;2023-01-23T14:55:26;22.57;;;14.37;;
15944;SDS011;30172;48.832;8.732;2023-01-23T14:57:53;27.70;;;15.83;;
15944;SDS011;30172;48.832;8.732;2023-01-23T15:00:19;28.10;;;15.90;;
15944;SDS011;30172;48.832;8.732;2023-01-23T15:02:46;28.13;;;15.10;;
15944;SDS011;30172;48.832;8.732;2023-01-23T15:07:46;25.93;;;16.87;;
15944;SDS011;30172;48.832;8.732;2023-01-23T15:10:18;24.83;;;14.77;;
15944;SDS011;30172;48.832;8.732;2023-01-23T15:15:24;27.93;;;16.07;;
15944;SDS011;30172;48.832;8.732;2023-01-23T15:17:50;26.93;;;16.17;;
15944;SDS011;30172;48.832;8.732;2023-01-23T15:20:31;28.00;;;16.03;;
15944;SDS011;30172;48.832;8.732;2023-01-23T15:22:57;27.43;;;15.23;;
15944;SDS011;30172;48.832;8.732;2023-01-23T15:25:38;25.87;;;15.20;;
15944;SDS011;30172;48.832;8.732;2023-01-23T15:28:27;28.53;;;17.47;;
15944;SDS011;30172;48.832;8.732;2023-01-23T15:33:53;25.80;;;14.90;;
15944;SDS011;30172;48.832;8.732;2023-01-23T15:36:28;25.50;;;15.60;;
15944;SDS011;30172;48.832;8.732;2023-01-23T15:38:55;26.53;;;16.00;;
15944;SDS011;30172;48.832;8.732;2023-01-23T15:41:36;23.47;;;14.63;;
15944;SDS011;30172;48.832;8.732;2023-01-23T15:44:02;28.00;;;15.90;;
15944;SDS011;30172;48.832;8.732;2023-01-23T15:46:27;25.03;;;15.00;;
15944;SDS011;30172;48.832;8.732;2023-01-23T15:48:53;25.20;;;14.80;;
15944;SDS011;30172;48.832;8.732;2023-01-23T15:51:18;28.53;;;17.43;;
15944;SDS011;30172;48.832;8.732;2023-01-23T15:53:43;25.63;;;15.93;;
15944;SDS011;30172;48.832;8.732;2023-01-23T15:56:12;30.17;;;16.73;;
15944;SDS011;30172;48.832;8.732;2023-01-23T15:58:48;28.27;;;16.77;;
15944;SDS011;30172;48.832;8.732;2023-01-23T16:01:13;27.30;;;16.83;;